KVSF/VSF METAR and TAF weather

Enter ICAO airport designator
Station Type Date Time Source
KVSF METAR 2020/01/20 21:54 UTC NOAA

KVSF 202154Z AUTO 00000KT 10SM CLR M08/M18 A3026 RMK AO2 SLP258 T10781183


Station Type Date Time Source
KVSF Decoded METAR 2020/01/20 21:54 UTC NOAA

HARTNESS STATE AIRPORT, VT, United States (KVSF) 43-21N 72-31W 175M
Jan 20, 2020 - 04:54 PM EST / 2020.01.20 2154 UTC
Wind: Calm:0
Visibility: 10 mile(s):0
Sky conditions: clear
Temperature: 18.0 F (-7.8 C)
Dew Point: -0.9 F (-18.3 C)
Relative Humidity: 42%
Pressure (altimeter): 30.26 in. Hg (1024 hPa)
ob: KVSF 202154Z AUTO 00000KT 10SM CLR M08/M18 A3026 RMK AO2 SLP258 T10781183
cycle: 22

Station Type Date Time Source
KVSF TAF UTC NOAA

Error!

Example: see airport list